Time;durP1;ratioP1;P1;durP2;ratioP2;P2;SDS_P1;SDS_P2;PMS_P1;PMS_P2;Temp;Humidity;BMP_temperature;BMP_pressure;BME280_temperature;BME280_humidity;BME280_pressure;Samples;Min_cycle;Max_cycle;Signal;HPM_P1;HPM_P2
2022/05/30 00:01:09;;;;;;;11.27;3.80;;;15.50;60.60;;;;;;5093938;28;20254;-89
2022/05/30 00:03:35;;;;;;;7.97;2.87;;;15.50;60.90;;;;;;5098905;28;20287;-90
2022/05/30 00:06:01;;;;;;;18.50;4.63;;;15.50;60.80;;;;;;5102280;28;20296;-90
2022/05/30 00:08:28;;;;;;;12.87;3.43;;;15.50;60.80;;;;;;5103205;28;20250;-90
2022/05/30 00:10:56;;;;;;;8.27;3.10;;;15.40;60.70;;;;;;5106205;28;20327;-91
2022/05/30 00:13:22;;;;;;;9.07;2.80;;;15.40;60.70;;;;;;5100332;28;20246;-91
2022/05/30 00:15:49;;;;;;;5.90;2.43;;;15.30;60.60;;;;;;5096665;28;20217;-91
2022/05/30 00:18:15;;;;;;;21.17;5.90;;;15.30;60.50;;;;;;5106130;28;20238;-94
2022/05/30 00:20:47;;;;;;;12.17;3.70;;;15.30;60.50;;;;;;5094562;28;20281;-92
2022/05/30 00:23:14;;;;;;;11.70;3.57;;;15.20;60.50;;;;;;5094865;28;20199;-90
2022/05/30 00:25:41;;;;;;;11.00;3.47;;;15.20;60.50;;;;;;5094163;28;20310;-91
2022/05/30 00:28:08;;;;;;;11.47;3.63;;;15.10;60.40;;;;;;5101968;28;20228;-90
2022/05/30 00:30:37;;;;;;;11.80;3.57;;;15.10;60.40;;;;;;5104890;28;20221;-92
2022/05/30 00:33:04;;;;;;;12.07;3.80;;;15.10;60.40;;;;;;5089046;28;21080;-90
2022/05/30 00:35:33;;;;;;;15.47;4.90;;;15.00;60.20;;;;;;5091180;28;20232;-92
2022/05/30 00:38:00;;;;;;;14.83;4.20;;;14.90;60.20;;;;;;5091925;28;20665;-91
2022/05/30 00:40:27;;;;;;;10.00;2.97;;;14.90;60.20;;;;;;5097155;28;20679;-91
2022/05/30 00:42:54;;;;;;;24.97;6.47;;;14.80;60.50;;;;;;5093061;28;20241;-91
2022/05/30 00:45:22;;;;;;;9.50;3.37;;;14.80;60.60;;;;;;5103725;28;20213;-91
2022/05/30 00:47:50;;;;;;;19.57;5.73;;;14.80;60.80;;;;;;5104683;28;20205;-92
2022/05/30 00:50:18;;;;;;;15.13;4.53;;;14.70;60.70;;;;;;5091442;28;20234;-92
2022/05/30 00:52:47;;;;;;;14.63;4.07;;;14.60;60.60;;;;;;5097861;28;20213;-90
2022/05/30 00:55:17;;;;;;;18.37;4.53;;;14.60;60.40;;;;;;5092107;28;20211;-91
2022/05/30 00:57:46;;;;;;;14.60;4.33;;;14.50;60.40;;;;;;5094761;28;20685;-91
2022/05/30 01:00:18;;;;;;;5.57;2.20;;;14.50;60.40;;;;;;5103097;28;20229;-92
2022/05/30 01:06:30;;;;;;;16.17;4.37;;;14.40;60.60;;;;;;5103862;28;20220;-91
2022/05/30 01:08:27;;;;;;;18.23;5.13;;;14.30;61.00;;;;;;5091289;28;20697;-91
2022/05/30 01:10:54;;;;;;;15.67;4.20;;;14.30;60.80;;;;;;5100790;28;20222;-89
2022/05/30 01:13:20;;;;;;;9.80;3.10;;;14.20;60.40;;;;;;5107405;28;20254;-91
2022/05/30 01:15:49;;;;;;;11.67;3.53;;;14.20;60.30;;;;;;5093252;28;20205;-90
2022/05/30 01:18:22;;;;;;;13.50;4.17;;;14.10;60.40;;;;;;5105283;28;20208;-91
2022/05/30 01:21:01;;;;;;;10.53;3.37;;;14.20;61.10;;;;;;5106206;28;20241;-90
2022/05/30 01:23:52;;;;;;;14.40;4.17;;;14.10;61.60;;;;;;5104449;28;20749;-90
2022/05/30 01:26:41;;;;;;;14.40;4.03;;;14.10;62.20;;;;;;5102900;28;20245;-90
2022/05/30 01:29:13;;;;;;;11.40;3.67;;;14.00;62.60;;;;;;5103753;28;20257;-90
2022/05/30 01:31:40;;;;;;;14.67;4.40;;;14.00;62.40;;;;;;5102785;28;20253;-89
2022/05/30 01:34:07;;;;;;;17.00;5.20;;;13.90;62.30;;;;;;5094360;28;20740;-90
2022/05/30 01:36:34;;;;;;;18.73;5.03;;;13.90;62.70;;;;;;5094246;28;20483;-92
2022/05/30 01:39:00;;;;;;;12.53;4.43;;;13.80;62.90;;;;;;5108618;28;20247;-91
2022/05/30 01:41:27;;;;;;;9.63;2.90;;;13.80;63.10;;;;;;5095891;28;20241;-92
2022/05/30 01:43:53;;;;;;;8.13;2.60;;;13.80;63.50;;;;;;5093438;28;20221;-91
2022/05/30 01:46:23;;;;;;;11.53;3.83;;;13.70;63.60;;;;;;5103511;28;20226;-93
2022/05/30 01:48:50;;;;;;;10.37;3.40;;;13.80;64.10;;;;;;5106876;28;20211;-91
2022/05/30 01:51:18;;;;;;;8.50;2.87;;;13.70;63.80;;;;;;5128636;28;20254;-92
2022/05/30 01:53:46;;;;;;;9.97;2.53;;;13.70;64.10;;;;;;5128134;28;20255;-91
2022/05/30 01:56:14;;;;;;;14.27;4.23;;;13.70;64.10;;;;;;5110810;28;20224;-92
2022/05/30 01:58:41;;;;;;;9.73;2.23;;;13.80;64.30;;;;;;5103121;28;20217;-90
2022/05/30 02:01:16;;;;;;;26.13;7.23;;;13.80;64.20;;;;;;5091390;28;20627;-90
2022/05/30 02:03:45;;;;;;;11.90;3.93;;;13.80;64.70;;;;;;5092207;28;20211;-91
2022/05/30 02:06:11;;;;;;;8.00;2.67;;;13.80;64.70;;;;;;5102987;28;20749;-90
2022/05/30 02:08:39;;;;;;;20.43;5.50;;;13.80;64.20;;;;;;5092599;28;20220;-90
2022/05/30 02:11:08;;;;;;;5.50;2.13;;;13.80;63.80;;;;;;5110466;28;20232;-91
2022/05/30 02:13:34;;;;;;;16.03;4.67;;;13.80;63.80;;;;;;5108764;28;20227;-91
2022/05/30 02:18:48;;;;;;;15.33;4.47;;;13.80;63.90;;;;;;5092018;28;20702;-89
2022/05/30 02:21:14;;;;;;;10.03;3.67;;;13.80;63.60;;;;;;5092739;28;20230;-91
2022/05/30 02:23:41;;;;;;;13.87;3.97;;;13.80;63.60;;;;;;5092179;28;20252;-91
2022/05/30 02:26:07;;;;;;;8.77;2.90;;;13.80;63.50;;;;;;5092217;28;20214;-91
2022/05/30 02:28:34;;;;;;;8.43;2.53;;;13.80;63.70;;;;;;5093334;28;20293;-91
2022/05/30 02:31:00;;;;;;;10.83;3.50;;;13.90;64.40;;;;;;5109732;28;20337;-91
2022/05/30 02:38:59;;;;;;;18.67;5.47;;;13.90;64.40;;;;;;5111060;28;20215;-90
2022/05/30 02:41:25;;;;;;;9.60;3.27;;;13.90;64.00;;;;;;5094090;28;20225;-92
2022/05/30 02:43:58;;;;;;;13.80;4.03;;;13.90;64.50;;;;;;5096667;28;20209;-94
2022/05/30 02:46:30;;;;;;;6.53;2.70;;;13.90;65.30;;;;;;5095465;28;20288;-92
2022/05/30 02:48:56;;;;;;;8.23;2.50;;;13.90;64.70;;;;;;5097192;28;20213;-91
2022/05/30 02:51:24;;;;;;;7.97;2.30;;;13.90;64.60;;;;;;5115421;28;20303;-91
2022/05/30 02:53:53;;;;;;;4.63;2.03;;;13.90;65.30;;;;;;5113929;28;20563;-92
2022/05/30 02:56:20;;;;;;;7.40;2.57;;;14.00;65.60;;;;;;5114645;28;20219;-90
2022/05/30 02:58:47;;;;;;;7.13;2.67;;;14.00;65.50;;;;;;5110360;28;20297;-91
2022/05/30 03:01:14;;;;;;;9.23;3.03;;;14.00;65.60;;;;;;5095131;28;20249;-89
2022/05/30 03:03:42;;;;;;;8.47;2.67;;;14.00;65.60;;;;;;5091021;28;20242;-89
2022/05/30 03:06:09;;;;;;;10.63;3.17;;;14.00;65.20;;;;;;5090044;28;20220;-90
2022/05/30 03:08:37;;;;;;;15.37;4.67;;;14.00;65.00;;;;;;5090081;28;20240;-89
2022/05/30 03:11:04;;;;;;;16.17;4.93;;;14.00;64.80;;;;;;5090767;28;20212;-91
2022/05/30 03:13:30;;;;;;;9.33;3.17;;;14.00;64.50;;;;;;5104161;28;20217;-90
2022/05/30 03:15:58;;;;;;;7.70;3.00;;;14.00;64.80;;;;;;5111711;28;20247;-91
2022/05/30 03:18:26;;;;;;;8.20;3.03;;;14.00;64.70;;;;;;5100878;28;20254;-90
2022/05/30 03:20:53;;;;;;;10.53;3.10;;;14.10;65.10;;;;;;5089074;28;20240;-90
2022/05/30 03:23:19;;;;;;;5.73;2.43;;;14.10;65.20;;;;;;5097770;28;20967;-90
2022/05/30 03:25:46;;;;;;;11.70;2.97;;;14.10;65.00;;;;;;5109130;28;20213;-91
2022/05/30 03:28:13;;;;;;;11.13;3.43;;;14.10;65.00;;;;;;5110920;28;20245;-90
2022/05/30 03:30:39;;;;;;;10.97;3.20;;;14.10;64.90;;;;;;5095418;28;20214;-90
2022/05/30 03:33:07;;;;;;;9.93;3.43;;;14.10;64.90;;;;;;5094067;28;20307;-94
2022/05/30 03:35:36;;;;;;;7.77;2.60;;;14.10;65.10;;;;;;5109093;28;20326;-90
2022/05/30 03:38:05;;;;;;;11.83;3.20;;;14.10;65.10;;;;;;5111760;28;20212;-90
2022/05/30 03:40:31;;;;;;;5.77;2.10;;;14.10;65.50;;;;;;5114281;28;20212;-92
2022/05/30 03:42:59;;;;;;;7.77;2.93;;;14.00;65.60;;;;;;5106331;28;20224;-90
2022/05/30 03:45:25;;;;;;;6.43;2.50;;;14.00;65.60;;;;;;5108387;28;20303;-92
2022/05/30 03:47:51;;;;;;;7.10;2.53;;;14.00;65.20;;;;;;5110747;28;20300;-93
2022/05/30 03:50:23;;;;;;;5.77;2.30;;;14.00;65.20;;;;;;5116559;28;20200;-94
2022/05/30 03:52:53;;;;;;;13.00;3.97;;;14.00;65.50;;;;;;5109486;28;20224;-92
2022/05/30 03:55:22;;;;;;;9.80;3.17;;;14.00;65.50;;;;;;5092175;28;20264;-90
2022/05/30 03:57:51;;;;;;;12.03;3.97;;;14.00;65.40;;;;;;5092517;28;20211;-89
2022/05/30 04:00:20;;;;;;;8.13;2.67;;;14.00;65.20;;;;;;5098692;28;20231;-92
2022/05/30 04:02:47;;;;;;;7.10;3.07;;;14.00;65.50;;;;;;5106334;28;20271;-92
2022/05/30 04:05:14;;;;;;;9.17;3.10;;;14.00;65.30;;;;;;5110440;28;20307;-91
2022/05/30 04:07:41;;;;;;;10.60;3.23;;;14.00;66.20;;;;;;5102133;28;20208;-89
2022/05/30 04:10:08;;;;;;;7.30;2.60;;;14.00;65.50;;;;;;5089360;28;20237;-90
2022/05/30 04:12:34;;;;;;;10.33;3.10;;;14.00;65.70;;;;;;5089238;28;20256;-90
2022/05/30 04:15:01;;;;;;;7.37;2.33;;;13.90;65.80;;;;;;5098511;28;20222;-91
2022/05/30 04:17:32;;;;;;;20.57;5.47;;;14.00;66.20;;;;;;5093332;28;20220;-92
2022/05/30 04:19:59;;;;;;;9.37;2.43;;;14.00;66.70;;;;;;5114056;28;20287;-92
2022/05/30 04:22:26;;;;;;;7.60;2.67;;;14.00;66.20;;;;;;5111028;28;20225;-96
2022/05/30 04:24:54;;;;;;;6.53;2.77;;;14.00;66.20;;;;;;5094935;28;20218;-92
2022/05/30 04:27:21;;;;;;;6.20;2.60;;;14.00;66.10;;;;;;5096184;28;20212;-94
2022/05/30 04:29:48;;;;;;;7.73;2.50;;;14.00;66.40;;;;;;5117993;28;20228;-94
2022/05/30 04:32:16;;;;;;;14.23;4.57;;;14.00;66.70;;;;;;5099033;28;20208;-94
2022/05/30 04:34:44;;;;;;;8.47;2.80;;;14.00;67.00;;;;;;5113884;28;20210;-94
2022/05/30 04:37:10;;;;;;;11.40;3.43;;;14.00;67.40;;;;;;5105103;28;20670;-94
2022/05/30 04:39:37;;;;;;;8.13;2.57;;;14.00;67.40;;;;;;5093414;28;20206;-96
2022/05/30 04:42:05;;;;;;;10.17;3.43;;;14.00;67.60;;;;;;5104607;28;20333;-95
2022/05/30 04:44:32;;;;;;;7.50;2.60;;;14.00;67.70;;;;;;5098318;28;20363;-94
2022/05/30 04:47:00;;;;;;;12.93;3.77;;;14.10;67.90;;;;;;5098269;28;20732;-93
2022/05/30 04:49:27;;;;;;;8.60;3.20;;;14.10;68.30;;;;;;5118084;28;20202;-96
2022/05/30 04:51:55;;;;;;;17.40;5.00;;;14.10;68.70;;;;;;5116790;28;20963;-89
2022/05/30 04:54:22;;;;;;;11.37;3.57;;;14.10;69.20;;;;;;5113364;28;20583;-90
2022/05/30 04:56:50;;;;;;;10.00;3.33;;;14.20;69.60;;;;;;5105015;28;20277;-90
2022/05/30 04:59:16;;;;;;;4.03;1.93;;;14.20;69.50;;;;;;5113215;28;20210;-91
2022/05/30 05:01:47;;;;;;;12.00;4.00;;;14.20;68.50;;;;;;5108340;28;20233;-94
2022/05/30 05:04:14;;;;;;;4.87;1.80;;;14.20;68.40;;;;;;5106206;28;20206;-93
2022/05/30 05:06:43;;;;;;;7.77;2.73;;;14.20;68.40;;;;;;5105183;28;20209;-95
2022/05/30 05:09:29;;;;;;;8.77;3.07;;;14.30;69.20;;;;;;5095496;28;20215;-93
2022/05/30 05:11:56;;;;;;;8.93;3.17;;;14.30;70.40;;;;;;5100015;28;20226;-90
2022/05/30 05:14:22;;;;;;;9.60;2.73;;;14.30;69.30;;;;;;5092288;28;20252;-89
2022/05/30 05:16:49;;;;;;;10.10;3.33;;;14.30;69.80;;;;;;5092457;28;20249;-92
2022/05/30 05:19:15;;;;;;;12.90;3.43;;;14.40;69.40;;;;;;5093489;28;20245;-90
2022/05/30 05:21:45;;;;;;;17.93;5.60;;;14.30;68.90;;;;;;5093990;28;20228;-96
2022/05/30 05:24:12;;;;;;;9.67;2.47;;;14.30;69.40;;;;;;5091934;28;20215;-92
2022/05/30 05:26:44;;;;;;;8.50;2.90;;;14.40;68.40;;;;;;5115426;28;20204;-90
2022/05/30 05:29:10;;;;;;;12.27;3.60;;;14.40;68.40;;;;;;5128521;28;20209;-93
2022/05/30 05:31:37;;;;;;;13.47;4.00;;;14.40;68.00;;;;;;5094197;28;20207;-89
2022/05/30 05:34:05;;;;;;;17.40;4.83;;;14.50;68.00;;;;;;5089262;28;20213;-89
2022/05/30 05:36:33;;;;;;;8.90;3.10;;;14.40;67.60;;;;;;5092102;28;20209;-89
2022/05/30 05:39:00;;;;;;;10.27;3.47;;;14.50;67.40;;;;;;5096252;28;20225;-88
2022/05/30 05:41:27;;;;;;;16.00;5.03;;;14.50;67.10;;;;;;5099122;28;20827;-93
2022/05/30 05:43:55;;;;;;;9.00;2.90;;;14.50;66.80;;;;;;5116602;28;20273;-94
2022/05/30 05:46:25;;;;;;;20.37;5.90;;;14.50;66.20;;;;;;5130461;28;20294;-89
2022/05/30 05:48:52;;;;;;;16.70;4.27;;;14.50;66.00;;;;;;5105991;28;20244;-91
2022/05/30 05:51:20;;;;;;;8.90;2.87;;;14.50;66.00;;;;;;5104218;28;20223;-89
2022/05/30 05:53:47;;;;;;;8.57;3.17;;;14.50;66.20;;;;;;5110449;28;20297;-93
2022/05/30 05:56:18;;;;;;;8.70;2.23;;;14.50;66.40;;;;;;5108050;28;20720;-94
2022/05/30 05:58:44;;;;;;;7.67;2.97;;;14.60;67.50;;;;;;5101537;28;20301;-96
2022/05/30 06:01:15;;;;;;;11.27;3.63;;;14.60;66.50;;;;;;5103225;28;20253;-94
2022/05/30 06:03:42;;;;;;;13.73;4.20;;;14.60;67.10;;;;;;5112074;28;20245;-89
2022/05/30 06:06:08;;;;;;;11.47;3.20;;;14.60;66.40;;;;;;5093040;28;20236;-90
2022/05/30 06:08:36;;;;;;;13.37;4.17;;;14.70;66.80;;;;;;5107412;28;20214;-91
2022/05/30 06:11:08;;;;;;;10.20;3.00;;;14.70;66.80;;;;;;5097304;28;20245;-89
2022/05/30 06:13:35;;;;;;;20.90;5.90;;;14.70;66.30;;;;;;5101490;28;21058;-89
2022/05/30 06:16:05;;;;;;;7.37;2.53;;;14.80;66.30;;;;;;5091704;28;20218;-88
2022/05/30 06:18:32;;;;;;;19.63;5.03;;;14.70;66.60;;;;;;5090144;28;20609;-89
2022/05/30 06:20:59;;;;;;;21.77;5.93;;;14.80;66.90;;;;;;5087213;28;20320;-88
2022/05/30 06:23:26;;;;;;;14.03;3.93;;;14.80;66.70;;;;;;5089347;28;20796;-89
2022/05/30 06:25:53;;;;;;;6.17;2.23;;;14.80;67.00;;;;;;5108974;28;20209;-89
2022/05/30 06:28:19;;;;;;;9.37;3.43;;;14.80;67.10;;;;;;5093800;28;20335;-88
2022/05/30 06:30:46;;;;;;;13.37;4.37;;;14.80;67.40;;;;;;5091973;28;20271;-87
2022/05/30 06:33:12;;;;;;;11.03;3.17;;;14.90;67.40;;;;;;5090706;28;20656;-87
2022/05/30 06:35:41;;;;;;;15.50;4.40;;;14.80;68.00;;;;;;5092617;28;20214;-87
2022/05/30 06:38:08;;;;;;;15.97;4.80;;;14.90;68.10;;;;;;5109087;28;22691;-88
2022/05/30 06:40:34;;;;;;;9.50;3.47;;;14.90;68.10;;;;;;5085050;28;20356;-88
2022/05/30 06:43:01;;;;;;;14.30;4.10;;;14.90;67.80;;;;;;5089945;28;20649;-88
2022/05/30 06:45:29;;;;;;;16.33;4.77;;;14.90;68.40;;;;;;5086043;28;20627;-88
2022/05/30 06:47:56;;;;;;;9.43;3.33;;;15.00;68.10;;;;;;5101015;28;20695;-88
2022/05/30 06:50:22;;;;;;;10.93;3.67;;;15.00;67.90;;;;;;5118682;28;20273;-87
2022/05/30 06:52:49;;;;;;;17.53;5.03;;;15.00;67.80;;;;;;5113017;28;21247;-88
2022/05/30 06:55:16;;;;;;;11.33;3.60;;;15.10;67.60;;;;;;5119593;28;20233;-88
2022/05/30 07:00:28;;;;;;;11.40;2.97;;;15.10;66.10;;;;;;5119508;28;20201;-89
2022/05/30 07:02:54;;;;;;;12.00;3.13;;;15.20;66.10;;;;;;5108988;28;20227;-90
2022/05/30 07:05:21;;;;;;;7.67;2.93;;;15.20;66.10;;;;;;5109126;28;21023;-88
2022/05/30 07:07:47;;;;;;;8.20;2.70;;;15.20;66.20;;;;;;5101740;28;20252;-91
2022/05/30 07:10:14;;;;;;;9.40;3.60;;;15.20;66.20;;;;;;5091127;28;20712;-90
2022/05/30 07:12:41;;;;;;;9.27;2.63;;;15.20;66.00;;;;;;5096896;28;20241;-88
2022/05/30 07:15:09;;;;;;;12.47;3.83;;;15.30;66.30;;;;;;5089343;28;20717;-89
2022/05/30 07:17:36;;;;;;;5.43;2.03;;;15.30;66.80;;;;;;5108959;28;20216;-88
2022/05/30 07:20:05;;;;;;;7.23;2.53;;;15.30;67.00;;;;;;5093390;28;20582;-88
2022/05/30 07:22:31;;;;;;;11.60;3.90;;;15.30;67.40;;;;;;5092385;28;20260;-88
2022/05/30 07:24:58;;;;;;;9.60;3.03;;;15.40;67.50;;;;;;5103154;28;20287;-88
2022/05/30 07:27:25;;;;;;;7.00;2.43;;;15.40;67.50;;;;;;5090691;28;20623;-89
2022/05/30 07:29:51;;;;;;;8.97;2.87;;;15.40;67.40;;;;;;5090137;28;20217;-89
2022/05/30 07:32:19;;;;;;;7.63;2.60;;;15.40;67.00;;;;;;5092716;28;20298;-89
2022/05/30 07:34:45;;;;;;;11.37;3.07;;;15.50;67.80;;;;;;5089825;28;20255;-89
2022/05/30 07:37:11;;;;;;;8.30;2.90;;;15.50;67.00;;;;;;5097456;28;20213;-89
2022/05/30 07:39:38;;;;;;;8.33;2.77;;;15.60;66.70;;;;;;5108139;28;20210;-88
2022/05/30 07:42:06;;;;;;;7.50;2.80;;;15.60;66.80;;;;;;5111155;28;20285;-89
2022/05/30 07:44:33;;;;;;;7.20;2.57;;;15.60;66.00;;;;;;5111306;28;20268;-89
2022/05/30 07:47:00;;;;;;;7.97;2.60;;;15.60;65.70;;;;;;5110207;28;20265;-89
2022/05/30 07:49:26;;;;;;;11.13;3.27;;;15.60;65.50;;;;;;5110465;28;20214;-88
2022/05/30 07:51:54;;;;;;;9.33;2.73;;;15.60;65.00;;;;;;5112045;28;20549;-90
2022/05/30 07:54:24;;;;;;;6.53;2.60;;;15.70;64.70;;;;;;5111753;28;20213;-89
2022/05/30 07:56:51;;;;;;;8.83;2.80;;;15.70;65.70;;;;;;5096718;28;20218;-87
2022/05/30 07:59:18;;;;;;;11.23;2.63;;;15.70;66.10;;;;;;5102821;28;20235;-89
2022/05/30 08:01:46;;;;;;;6.67;2.47;;;15.70;64.20;;;;;;5109968;28;20280;-92
2022/05/30 08:04:15;;;;;;;10.03;3.07;;;15.80;64.50;;;;;;5100533;28;20288;-89
2022/05/30 08:06:41;;;;;;;8.47;2.80;;;15.80;64.30;;;;;;5089485;28;20249;-89
2022/05/30 08:09:08;;;;;;;9.70;3.17;;;15.70;64.40;;;;;;5095736;28;20213;-89
2022/05/30 08:11:36;;;;;;;6.60;2.30;;;15.80;65.20;;;;;;5111123;28;20385;-89
2022/05/30 08:14:02;;;;;;;12.67;4.10;;;15.80;65.40;;;;;;5109617;28;20223;-91
2022/05/30 08:16:28;;;;;;;13.00;3.73;;;15.80;64.60;;;;;;5104006;28;20796;-90
2022/05/30 08:18:56;;;;;;;7.00;2.37;;;15.90;64.10;;;;;;5104647;28;20226;-90
2022/05/30 08:21:23;;;;;;;8.60;2.93;;;16.00;63.70;;;;;;5111996;28;20226;-93
2022/05/30 08:23:49;;;;;;;9.00;3.00;;;16.00;62.90;;;;;;5101318;28;20213;-92
2022/05/30 08:26:16;;;;;;;7.83;2.87;;;16.10;63.50;;;;;;5091982;28;20275;-94
2022/05/30 08:28:42;;;;;;;7.07;2.70;;;16.20;64.40;;;;;;5090221;28;20297;-91
2022/05/30 08:31:09;;;;;;;7.27;2.50;;;16.30;64.00;;;;;;5089328;28;20218;-89
2022/05/30 08:33:35;;;;;;;8.27;3.03;;;16.40;63.40;;;;;;5096981;28;20212;-90
2022/05/30 08:36:06;;;;;;;8.07;2.33;;;16.40;64.10;;;;;;5113980;28;20207;-94
2022/05/30 08:38:33;;;;;;;9.77;3.03;;;16.60;63.10;;;;;;5104213;28;20679;-89
2022/05/30 08:43:50;;;;;;;6.93;2.33;;;16.90;63.00;;;;;;5093272;28;20207;-95
2022/05/30 08:46:32;;;;;;;11.90;4.00;;;17.00;63.00;;;;;;5094345;28;20208;-91
2022/05/30 08:49:12;;;;;;;9.67;2.30;;;17.20;62.40;;;;;;5099601;28;20330;-91
2022/05/30 08:51:59;;;;;;;6.83;2.63;;;17.30;62.80;;;;;;5109510;28;20224;-90
2022/05/30 08:54:36;;;;;;;7.13;2.77;;;17.50;62.00;;;;;;5101359;28;20198;-96
2022/05/30 08:57:07;;;;;;;9.60;3.80;;;17.60;60.80;;;;;;5094697;28;20243;-94
2022/05/30 08:59:59;;;;;;;6.87;2.87;;;17.70;60.90;;;;;;5113861;28;20269;-94
2022/05/30 09:02:30;;;;;;;11.23;3.63;;;17.80;60.50;;;;;;5112599;28;20320;-93
2022/05/30 09:05:03;;;;;;;6.07;2.43;;;17.90;61.20;;;;;;5091873;28;20245;-89
2022/05/30 09:07:36;;;;;;;10.13;3.77;;;18.00;60.30;;;;;;5090389;28;20269;-90
2022/05/30 09:10:08;;;;;;;8.73;2.50;;;18.10;58.80;;;;;;5088548;28;20326;-89
2022/05/30 09:12:40;;;;;;;8.33;2.90;;;18.10;58.60;;;;;;5089109;28;20260;-90
2022/05/30 09:15:11;;;;;;;6.93;2.23;;;18.20;59.00;;;;;;5097595;28;20214;-94
2022/05/30 09:17:44;;;;;;;7.03;2.73;;;18.20;58.90;;;;;;5108481;28;20296;-91
2022/05/30 09:20:14;;;;;;;5.47;2.10;;;18.20;58.90;;;;;;5106059;28;20210;-94
2022/05/30 09:22:42;;;;;;;5.30;2.20;;;18.20;59.60;;;;;;5097622;28;20233;-90
2022/05/30 09:27:58;;;;;;;8.83;3.40;;;18.40;58.70;;;;;;5106776;28;20317;-91
2022/05/30 09:30:31;;;;;;;12.17;3.17;;;18.50;58.80;;;;;;5091097;28;20249;-90
2022/05/30 09:33:14;;;;;;;10.53;3.70;;;18.60;57.80;;;;;;5093413;28;20304;-90
2022/05/30 09:35:42;;;;;;;8.17;2.60;;;18.60;57.20;;;;;;5111909;28;20208;-89
2022/05/30 09:38:16;;;;;;;7.63;2.60;;;18.70;57.70;;;;;;5100308;28;20216;-90
2022/05/30 09:40:46;;;;;;;7.93;2.53;;;18.70;57.30;;;;;;5107080;28;20217;-88
2022/05/30 09:43:23;;;;;;;8.37;3.10;;;18.80;57.40;;;;;;5096091;28;20309;-88
2022/05/30 09:45:51;;;;;;;6.23;2.20;;;18.80;56.60;;;;;;5093417;28;20245;-90
2022/05/30 09:48:19;;;;;;;8.23;2.67;;;18.90;57.20;;;;;;5119131;28;20238;-88
2022/05/30 09:50:47;;;;;;;4.67;2.07;;;18.80;56.60;;;;;;5109312;28;20426;-89
2022/05/30 09:53:42;;;;;;;7.83;2.70;;;18.80;56.80;;;;;;5116788;28;20642;-89
2022/05/30 09:56:09;;;;;;;5.23;2.33;;;18.80;56.20;;;;;;5113838;28;20296;-90
2022/05/30 09:58:45;;;;;;;10.97;3.63;;;18.80;57.00;;;;;;5098268;28;20251;-89
2022/05/30 10:01:22;;;;;;;10.30;3.87;;;18.70;56.80;;;;;;5092849;28;20222;-88
2022/05/30 10:03:48;;;;;;;9.53;3.60;;;18.70;57.30;;;;;;5105659;28;20671;-89
2022/05/30 10:06:17;;;;;;;7.07;2.83;;;18.60;57.20;;;;;;5096593;28;20716;-90
2022/05/30 10:08:46;;;;;;;9.57;3.57;;;18.50;57.20;;;;;;5092518;28;20352;-92
2022/05/30 10:11:30;;;;;;;10.57;3.77;;;18.50;57.30;;;;;;5091412;28;20359;-89
2022/05/30 10:13:56;;;;;;;10.27;3.03;;;18.40;57.20;;;;;;5090624;28;20301;-88
2022/05/30 10:16:31;;;;;;;8.20;3.03;;;18.30;57.30;;;;;;5090919;28;20768;-88
2022/05/30 10:19:00;;;;;;;8.40;2.93;;;18.20;57.30;;;;;;5090275;28;20210;-89
2022/05/30 10:30:36;;;;;;;9.73;2.80;;;17.90;58.00;;;;;;5104440;28;20239;-89
2022/05/30 10:33:10;;;;;;;11.03;3.20;;;17.80;57.10;;;;;;5109798;28;20288;-89
2022/05/30 10:35:43;;;;;;;13.03;3.93;;;17.80;57.00;;;;;;5110083;28;20310;-89
2022/05/30 10:38:22;;;;;;;7.70;2.73;;;17.70;56.40;;;;;;5105636;28;20290;-89
2022/05/30 10:41:02;;;;;;;8.97;3.30;;;17.60;56.50;;;;;;5090020;28;20755;-88
2022/05/30 10:43:42;;;;;;;12.70;4.37;;;17.60;55.90;;;;;;5098478;28;20209;-90
2022/05/30 10:46:12;;;;;;;7.87;3.13;;;17.50;56.40;;;;;;5111451;28;20231;-91
2022/05/30 10:48:42;;;;;;;11.97;3.23;;;17.50;57.00;;;;;;5110105;28;20293;-88
2022/05/30 10:51:16;;;;;;;7.57;2.60;;;17.50;57.20;;;;;;5114908;28;20296;-90
2022/05/30 10:53:48;;;;;;;15.97;5.43;;;17.40;56.50;;;;;;5114983;28;20299;-90
2022/05/30 10:56:21;;;;;;;10.20;3.03;;;17.40;57.20;;;;;;5106174;28;20272;-88
2022/05/30 10:58:55;;;;;;;8.03;2.77;;;17.40;57.60;;;;;;5111460;28;20267;-89
2022/05/30 11:01:40;;;;;;;8.50;3.30;;;17.40;57.90;;;;;;5100840;28;20632;-90
2022/05/30 11:04:19;;;;;;;18.50;5.47;;;17.40;57.90;;;;;;5089927;28;20270;-89
2022/05/30 11:06:48;;;;;;;13.23;4.53;;;17.40;57.50;;;;;;5097873;28;20205;-89
2022/05/30 11:09:21;;;;;;;11.93;4.13;;;17.50;58.00;;;;;;5093910;28;20265;-88
2022/05/30 11:11:54;;;;;;;11.30;3.60;;;17.60;58.00;;;;;;5090199;28;20644;-88
2022/05/30 11:14:29;;;;;;;12.47;4.27;;;17.60;57.50;;;;;;5091737;28;20213;-88
2022/05/30 11:17:02;;;;;;;10.87;2.70;;;17.70;56.90;;;;;;5094081;28;20214;-89
2022/05/30 11:19:37;;;;;;;8.80;3.10;;;17.80;57.50;;;;;;5110558;28;20648;-89
2022/05/30 11:22:10;;;;;;;9.33;3.43;;;17.80;56.80;;;;;;5095061;28;20320;-89
2022/05/30 11:24:40;;;;;;;8.23;2.87;;;17.90;57.50;;;;;;5109383;28;20244;-89
2022/05/30 11:27:31;;;;;;;15.00;4.97;;;18.00;56.90;;;;;;5107776;28;20265;-89
2022/05/30 11:30:12;;;;;;;7.57;2.83;;;18.10;56.70;;;;;;5119256;28;20281;-91
2022/05/30 11:33:10;;;;;;;9.87;3.67;;;18.10;56.70;;;;;;5110092;28;20320;-91
2022/05/30 11:35:37;;;;;;;12.07;4.33;;;18.20;56.40;;;;;;5074487;28;20244;-90
2022/05/30 11:38:23;;;;;;;7.53;2.63;;;18.30;56.80;;;;;;5105347;28;20730;-89
2022/05/30 11:40:58;;;;;;;11.67;3.70;;;18.40;57.20;;;;;;5102280;28;21031;-89
2022/05/30 11:43:41;;;;;;;9.00;3.00;;;18.60;57.60;;;;;;5089508;28;20216;-88
2022/05/30 11:46:18;;;;;;;10.30;3.37;;;18.70;57.50;;;;;;5105971;28;20288;-89
2022/05/30 11:48:54;;;;;;;20.50;4.13;;;18.80;57.20;;;;;;5113964;28;20307;-89
2022/05/30 11:51:33;;;;;;;7.00;2.37;;;19.00;57.10;;;;;;5095000;28;20293;-88
2022/05/30 11:54:16;;;;;;;6.83;2.60;;;19.20;56.50;;;;;;5090104;28;20296;-89
2022/05/30 11:56:52;;;;;;;14.03;3.60;;;19.50;55.30;;;;;;5090292;28;20234;-89
2022/05/30 11:59:47;;;;;;;7.43;2.83;;;19.60;55.90;;;;;;5089543;28;20253;-89
2022/05/30 12:02:19;;;;;;;6.33;2.50;;;19.80;55.40;;;;;;5075354;28;20242;-90
2022/05/30 12:05:21;;;;;;;6.60;2.83;;;19.90;54.00;;;;;;5088632;28;20213;-90
2022/05/30 12:08:12;;;;;;;4.37;2.03;;;20.00;53.40;;;;;;5086981;28;20657;-91
2022/05/30 12:10:53;;;;;;;5.07;2.07;;;20.10;54.10;;;;;;5095603;28;20289;-92
2022/05/30 12:13:41;;;;;;;10.37;3.23;;;20.20;53.50;;;;;;5091187;28;20222;-95
2022/05/30 12:16:16;;;;;;;14.33;3.90;;;20.20;52.80;;;;;;5092065;28;20206;-93
2022/05/30 12:24:45;;;;;;;9.20;3.30;;;20.20;53.00;;;;;;5061920;28;20218;-93
2022/05/30 12:27:33;;;;;;;8.33;3.00;;;20.30;53.40;;;;;;5088663;28;20293;-91
2022/05/30 12:30:02;;;;;;;10.47;3.10;;;20.20;52.80;;;;;;5090602;28;20863;-90
2022/05/30 12:32:41;;;;;;;8.10;2.87;;;20.20;53.00;;;;;;5090063;28;20926;-93
2022/05/30 12:35:30;;;;;;;6.47;2.43;;;20.20;53.40;;;;;;5088619;28;20210;-90
2022/05/30 12:38:10;;;;;;;8.70;3.50;;;20.10;52.20;;;;;;5088572;28;20215;-89
2022/05/30 12:40:41;;;;;;;8.13;2.87;;;20.10;52.40;;;;;;5094332;28;20289;-92
2022/05/30 12:43:29;;;;;;;7.50;2.80;;;20.10;52.30;;;;;;5089677;28;20278;-89
2022/05/30 12:46:11;;;;;;;12.30;4.20;;;20.10;52.30;;;;;;5109312;28;20218;-91
2022/05/30 12:48:44;;;;;;;5.27;1.77;;;20.00;52.00;;;;;;5102010;28;20297;-92
2022/05/30 12:51:21;;;;;;;6.17;2.57;;;20.00;51.90;;;;;;5091493;28;20245;-90
2022/05/30 12:54:25;;;;;;;9.60;3.50;;;20.00;52.50;;;;;;5088701;28;20218;-91
2022/05/30 12:57:07;;;;;;;10.33;3.07;;;19.90;52.10;;;;;;5091445;28;20302;-91
2022/05/30 12:59:54;;;;;;;8.20;3.33;;;19.90;52.10;;;;;;5108530;28;20210;-89
2022/05/30 13:02:54;;;;;;;11.67;4.30;;;19.90;53.10;;;;;;5108612;28;20588;-89
2022/05/30 13:05:25;;;;;;;12.07;4.47;;;19.90;51.70;;;;;;5116652;28;20794;-91
2022/05/30 13:07:52;;;;;;;14.30;3.80;;;19.90;52.70;;;;;;5118946;28;20704;-89
2022/05/30 13:10:18;;;;;;;8.27;3.47;;;20.00;52.10;;;;;;5121022;28;20347;-90
2022/05/30 13:12:53;;;;;;;11.27;3.80;;;20.00;52.30;;;;;;5118264;28;20321;-89
2022/05/30 13:15:27;;;;;;;13.17;4.23;;;20.10;50.70;;;;;;5115777;28;20206;-90
2022/05/30 13:18:04;;;;;;;11.40;3.67;;;20.10;51.30;;;;;;5099550;28;20383;-91
2022/05/30 13:20:48;;;;;;;8.67;3.40;;;20.20;51.20;;;;;;5090884;28;20213;-89
2022/05/30 13:23:27;;;;;;;6.40;2.80;;;20.30;51.40;;;;;;5101393;28;20321;-89
2022/05/30 13:25:53;;;;;;;10.80;3.47;;;20.30;51.00;;;;;;5111252;28;20246;-88
2022/05/30 13:28:23;;;;;;;5.73;2.53;;;20.20;50.90;;;;;;5110265;28;20215;-88
2022/05/30 13:30:51;;;;;;;7.53;3.20;;;20.30;51.30;;;;;;5111389;28;20232;-89
2022/05/30 13:33:22;;;;;;;7.47;2.80;;;20.30;51.30;;;;;;5099443;28;20215;-90
2022/05/30 13:35:54;;;;;;;8.63;3.20;;;20.30;51.40;;;;;;5090863;28;20214;-89